LTCG

Details ICAO LTCG (TZX)
Name TRABZON
Region Turkey
Timezone Europe/Istanbul (UTC+3.0)
Plans Departing 155
Arriving 168
Stats Elevation 104 ft / 32 m (AMSL)
Location 40.995060° 39.789701°
Runways 1
Magnetic Variation 6.319° E
Sunrise 2017-12-12 04:37:46 UTC / 2017-12-12 07:37:46 Local
Sunset 2017-12-12 13:54:09 UTC / 2017-12-12 16:54:09 Local
Advertisement - Login to hide

Runways

ID Width Length Bearing (true) Bearing (mag) Surface Threshold Offset Overrun Length
11 148 ft / 45 m 8,609 ft / 2,624 m 112.32° 106.00° Asphalt 0 ft / 0 m 197 ft / 60 m
29 148 ft / 45 m 8,609 ft / 2,624 m 292.34° 286.02° Asphalt 0 ft / 0 m 197 ft / 60 m

Approach Navaids

Runway Type Ident Frequency Range Bearing (true) Bearing (mag) Slope Elevation
11 Localiser ITBZ 109.10 MHz 18 nm / 33 km 112.50° 106.18° - 95 ft / 29 m (AMSL)
11 Glidescope ITBZ 109.10 MHz 10 nm / 19 km 112.33° 106.01° 3.30° 104 ft / 32 m (AMSL)
11 DME ITBZ 109.10 MHz 18 nm / 33 km - - - 98 ft / 30 m (AMSL)

Map

Weather


0- 5 10 15 20 25 30 35+ Temperature / ° C

Clouds and Precipitation
Forecast for 2017-12-12 06:00 UTC. Updated 2 hours ago

Ground ~20,000 ft ~40,000 ft Winds

METAR

LTCG 120420Z VRB02KT CAVOK 09/03 Q1026 NOSIG

TAF

Not found

Frequencies

Ground 121.90 MHz GND
Tower 120.10 MHz TWR
Approach 120.10 MHz APP
Tower 122.10 MHz TWR
Approach 122.10 MHz APP
Warning: Do not use this data for real-world aviation or navigation. No guarantee of current accuracy is given.